createdAt,value
2018-08-17T07:45:45.809Z,6.27
2018-08-17T07:48:14.161Z,5.73
2018-08-17T07:50:42.153Z,6.10
2018-08-17T07:53:10.347Z,5.00
2018-08-17T07:55:38.275Z,6.07
2018-08-17T07:58:06.444Z,5.50
2018-08-17T08:00:34.373Z,4.97
2018-08-17T08:03:02.537Z,7.93
2018-08-17T08:05:30.702Z,4.67
2018-08-17T08:07:58.855Z,5.33
2018-08-17T08:10:27.014Z,5.40
2018-08-17T08:12:55.749Z,4.60
2018-08-17T08:15:23.951Z,5.03
2018-08-17T08:17:52.593Z,3.83
2018-08-17T08:20:35.005Z,3.47
2018-08-17T08:23:14.961Z,4.43
2018-08-17T08:25:43.220Z,3.10
2018-08-17T08:28:11.454Z,3.30
2018-08-17T08:30:39.642Z,3.20
2018-08-17T08:33:07.805Z,4.10
2018-08-17T08:35:35.981Z,2.73
2018-08-17T08:38:04.199Z,2.73
2018-08-17T08:40:32.377Z,2.50
2018-08-17T08:43:00.582Z,3.30
2018-08-17T08:45:28.797Z,3.20
2018-08-17T08:47:57.017Z,3.00
2018-08-17T08:50:25.211Z,5.13
2018-08-17T08:52:53.361Z,19.23
2018-08-17T08:55:21.549Z,11.20
2018-08-17T08:57:49.718Z,15.23
2018-08-17T09:00:17.929Z,10.97
2018-08-17T09:02:46.105Z,11.83
2018-08-17T09:05:14.028Z,13.07
2018-08-17T09:07:42.244Z,14.00
2018-08-17T09:10:10.798Z,11.20
2018-08-17T09:12:38.745Z,14.33
2018-08-17T09:15:08.598Z,14.50
2018-08-17T09:17:36.773Z,15.87
2018-08-17T09:21:08.629Z,13.43
2018-08-17T09:23:36.814Z,10.90
2018-08-17T09:26:05.038Z,14.17
2018-08-17T09:28:33.217Z,8.13
2018-08-17T09:31:01.381Z,5.40
2018-08-17T09:33:29.315Z,5.17
2018-08-17T09:35:58.022Z,5.80
2018-08-17T09:38:26.137Z,3.47
2018-08-17T09:40:54.083Z,3.77
2018-08-17T09:45:55.953Z,4.33
2018-08-17T09:48:24.127Z,2.87
2018-08-17T09:50:52.282Z,3.10
2018-08-17T09:53:20.478Z,4.23
2018-08-17T09:55:48.648Z,4.07
2018-08-17T09:58:17.873Z,3.90
2018-08-17T10:00:51.652Z,3.40
2018-08-17T10:03:25.345Z,3.50
2018-08-17T10:05:59.013Z,4.67
2018-08-17T10:09:34.330Z,4.80
2018-08-17T10:12:02.477Z,7.50
2018-08-17T10:14:30.994Z,8.00
2018-08-17T10:16:59.193Z,8.47
2018-08-17T10:19:27.362Z,12.33
2018-08-17T10:21:56.175Z,14.47
2018-08-17T10:24:24.626Z,9.97
2018-08-17T10:26:54.166Z,8.10
2018-08-17T10:29:22.673Z,6.83
2018-08-17T10:31:50.734Z,7.03
2018-08-17T10:34:19.033Z,7.30
2018-08-17T10:36:47.277Z,7.90
2018-08-17T10:39:16.976Z,6.60
2018-08-17T10:41:45.213Z,6.70
2018-08-17T10:44:13.516Z,8.47
2018-08-17T10:46:42.289Z,10.70
2018-08-17T10:49:10.908Z,12.03
2018-08-17T10:51:39.055Z,9.80
2018-08-17T10:54:07.201Z,10.27
2018-08-17T10:56:35.374Z,12.60
2018-08-17T10:59:03.593Z,11.47
2018-08-17T11:01:32.265Z,12.40
2018-08-17T11:04:00.442Z,13.30
2018-08-17T11:06:28.631Z,10.23
2018-08-17T11:08:57.805Z,9.27
2018-08-17T11:11:25.978Z,9.37
2018-08-17T11:13:53.909Z,8.30
2018-08-17T11:16:23.463Z,7.87
2018-08-17T11:18:51.640Z,10.13
2018-08-17T11:21:19.849Z,9.00
2018-08-17T11:23:48.018Z,6.50
2018-08-17T11:26:16.211Z,6.83
2018-08-17T11:28:44.397Z,11.60
2018-08-17T11:47:35.275Z,8.40
2018-08-17T11:50:03.429Z,10.07
2018-08-17T11:52:37.190Z,9.60
2018-08-17T11:55:05.142Z,10.43
2018-08-17T11:57:33.301Z,7.90
2018-08-17T12:00:01.277Z,8.47
2018-08-17T12:02:29.438Z,7.80
2018-08-17T12:04:57.616Z,8.73
2018-08-17T12:07:25.544Z,8.57
2018-08-17T12:09:59.145Z,9.40
2018-08-17T12:12:28.289Z,8.40
2018-08-17T12:14:56.228Z,11.07
2018-08-17T12:17:24.156Z,8.90
2018-08-17T12:19:52.381Z,8.97
2018-08-17T12:22:20.553Z,9.40
2018-08-17T12:24:48.943Z,8.73
2018-08-17T12:27:16.949Z,8.70
2018-08-17T12:29:45.206Z,8.90
2018-08-17T12:32:13.500Z,8.10
2018-08-17T12:34:41.285Z,7.33
2018-08-17T12:37:10.082Z,9.77
2018-08-17T12:39:38.249Z,8.63
2018-08-17T12:42:06.225Z,8.17
2018-08-17T12:44:34.394Z,7.63
2018-08-17T12:47:02.313Z,9.10
2018-08-17T12:49:30.472Z,7.70
2018-08-17T12:51:58.689Z,7.87
2018-08-17T12:54:30.199Z,8.70
2018-08-17T12:56:59.001Z,9.10
2018-08-17T12:59:27.269Z,12.40
2018-08-17T13:01:55.871Z,9.77
2018-08-17T13:04:24.361Z,11.03
2018-08-17T13:06:52.653Z,10.57
2018-08-17T13:09:20.963Z,11.30
2018-08-17T13:11:55.816Z,12.80
2018-08-17T13:14:24.035Z,12.33
2018-08-17T13:16:52.569Z,9.40
2018-08-17T13:19:20.749Z,17.43
2018-08-17T13:21:48.956Z,11.50
2018-08-17T13:24:17.185Z,11.40
2018-08-17T13:26:45.711Z,12.17
2018-08-17T13:29:13.925Z,11.93
2018-08-17T13:31:42.123Z,9.00
2018-08-17T13:34:10.056Z,12.67
2018-08-17T13:36:38.229Z,12.67
2018-08-17T13:39:08.469Z,13.10
2018-08-17T13:41:36.712Z,12.60
2018-08-17T13:44:06.693Z,11.97
2018-08-17T13:46:34.998Z,14.50
2018-08-17T13:49:03.248Z,18.20
2018-08-17T13:51:31.355Z,12.27
2018-08-17T13:53:59.525Z,11.87
2018-08-17T13:56:27.703Z,9.53
2018-08-17T13:58:55.920Z,11.23
2018-08-17T14:01:24.093Z,12.60
2018-08-17T14:03:52.291Z,13.33
2018-08-17T14:06:20.475Z,16.67
2018-08-17T14:08:48.672Z,10.90
2018-08-17T14:11:16.869Z,13.50
2018-08-17T14:13:45.069Z,14.40
2018-08-17T14:16:13.275Z,14.70
2018-08-17T14:18:41.453Z,11.30
2018-08-17T14:21:09.670Z,12.87
2018-08-17T14:23:37.840Z,15.63
2018-08-17T14:26:05.769Z,11.10
2018-08-17T14:28:34.657Z,12.10
2018-08-17T14:31:02.861Z,9.37
2018-08-17T14:33:31.050Z,11.70
2018-08-17T14:35:59.204Z,10.50
2018-08-17T14:38:31.568Z,11.10
2018-08-17T14:40:59.652Z,10.70
2018-08-17T14:43:27.986Z,13.33
2018-08-17T14:45:56.070Z,9.93
2018-08-17T14:48:24.378Z,11.40
2018-08-17T14:50:52.584Z,10.23
2018-08-17T14:53:21.832Z,13.50
2018-08-17T14:55:49.768Z,10.23
2018-08-17T14:58:18.035Z,9.87
2018-08-17T15:00:45.998Z,8.73
2018-08-17T15:03:14.226Z,13.40
2018-08-17T15:05:42.398Z,9.63
2018-08-17T15:08:10.593Z,8.63
2018-08-17T15:10:38.842Z,10.70
2018-08-17T15:13:07.084Z,6.60
2018-08-17T15:15:34.936Z,8.13
2018-08-17T15:18:03.137Z,7.07
2018-08-17T15:20:31.324Z,8.83
2018-08-17T15:22:59.494Z,9.93
2018-08-17T15:25:27.668Z,10.73
2018-08-17T15:27:56.237Z,8.57
2018-08-17T15:30:24.451Z,8.23
2018-08-17T15:32:52.629Z,7.60
2018-08-17T15:35:20.544Z,6.20
2018-08-17T15:37:48.705Z,8.47
2018-08-17T15:40:16.857Z,6.97
2018-08-17T15:42:45.030Z,6.50
2018-08-17T15:45:13.317Z,6.33
2018-08-17T15:47:41.466Z,9.40
2018-08-17T15:50:12.484Z,5.63
2018-08-17T15:52:40.772Z,8.10
2018-08-17T15:55:08.966Z,12.03
2018-08-17T15:57:37.373Z,6.03
2018-08-17T16:00:06.240Z,7.63
2018-08-17T16:02:34.393Z,8.83
2018-08-17T16:05:02.569Z,11.73
2018-08-17T16:07:30.739Z,8.03
2018-08-17T16:09:58.916Z,6.87
2018-08-17T16:12:27.068Z,8.97
2018-08-17T16:14:55.219Z,9.83
2018-08-17T16:17:23.397Z,8.77
2018-08-17T16:19:51.573Z,5.97
2018-08-17T16:22:19.740Z,4.93
2018-08-17T16:24:47.994Z,4.63
2018-08-17T16:27:16.097Z,3.77
2018-08-17T16:29:44.281Z,5.83
2018-08-17T16:32:12.232Z,5.43
2018-08-17T16:34:40.421Z,4.43
2018-08-17T16:37:08.612Z,3.57
2018-08-17T16:39:43.434Z,2.40
2018-08-17T16:42:14.746Z,2.07
2018-08-17T16:44:42.965Z,3.67
2018-08-17T16:47:11.091Z,4.00
2018-08-17T16:49:39.256Z,4.10
2018-08-17T16:52:07.235Z,5.00
2018-08-17T16:54:35.419Z,4.53
2018-08-17T16:57:03.605Z,4.13
2018-08-17T16:59:31.520Z,4.40
2018-08-17T17:01:59.685Z,8.33
2018-08-17T17:04:28.614Z,7.30
2018-08-17T17:06:56.724Z,7.37
2018-08-17T17:09:25.025Z,7.40
2018-08-17T17:11:53.092Z,7.30
2018-08-17T17:14:21.632Z,6.40
2018-08-17T17:16:50.346Z,4.30
2018-08-17T17:19:20.106Z,5.77
2018-08-17T17:21:49.326Z,4.93
2018-08-17T17:24:17.973Z,5.33
2018-08-17T17:26:45.909Z,3.97
2018-08-17T17:29:14.091Z,2.90
2018-08-17T17:31:42.860Z,3.43
2018-08-17T17:34:11.369Z,6.03
2018-08-17T17:36:39.585Z,10.40
2018-08-17T17:39:08.328Z,5.70
2018-08-17T17:41:36.553Z,3.53
2018-08-17T17:44:04.467Z,4.03
2018-08-17T17:46:32.626Z,4.27
2018-08-17T17:49:00.563Z,3.50
2018-08-17T17:51:28.728Z,5.50
2018-08-17T17:53:56.903Z,2.77
2018-08-17T17:56:25.053Z,6.30
2018-08-17T17:58:59.241Z,4.17
2018-08-17T18:01:27.177Z,6.23
2018-08-17T18:03:55.352Z,3.53
2018-08-17T18:06:23.538Z,8.77
2018-08-17T18:08:51.468Z,5.60
2018-08-17T18:11:19.643Z,5.30
2018-08-17T18:13:47.829Z,5.60
2018-08-17T18:16:16.027Z,8.10
2018-08-17T18:18:44.184Z,3.73
2018-08-17T18:21:12.124Z,7.60
2018-08-17T18:23:40.328Z,7.67
2018-08-17T18:26:10.409Z,4.90
2018-08-17T18:28:38.600Z,9.00
2018-08-17T18:31:06.772Z,4.87
2018-08-17T18:33:34.951Z,3.23
2018-08-17T18:36:03.129Z,4.10
2018-08-17T18:38:31.081Z,7.30
2018-08-17T18:40:59.273Z,7.93
2018-08-17T18:43:27.449Z,5.77
2018-08-17T18:45:55.635Z,4.10
2018-08-17T18:48:23.556Z,5.83
2018-08-17T18:50:51.717Z,7.20
2018-08-17T18:53:19.884Z,4.57
2018-08-17T18:55:47.828Z,5.30
2018-08-17T18:58:15.744Z,10.10
2018-08-17T19:00:43.892Z,5.37
2018-08-17T19:03:11.809Z,5.87
2018-08-17T19:05:39.764Z,4.53
2018-08-17T19:08:14.690Z,4.10
2018-08-17T19:10:42.841Z,7.97
2018-08-17T19:13:11.018Z,5.67
2018-08-17T19:15:45.274Z,4.30
2018-08-17T19:18:13.512Z,4.80
2018-08-17T19:20:41.429Z,4.30
2018-08-17T19:23:09.608Z,4.60
2018-08-17T19:25:40.696Z,4.83
2018-08-17T19:28:08.648Z,7.10
2018-08-17T19:30:36.833Z,4.93
2018-08-17T19:33:09.407Z,5.20
2018-08-17T19:35:40.176Z,7.17
2018-08-17T19:38:08.352Z,3.37
2018-08-17T19:40:36.587Z,17.77
2018-08-17T19:43:04.773Z,3.60
2018-08-17T19:45:32.926Z,6.10
2018-08-17T19:48:01.083Z,5.27
2018-08-17T19:50:29.257Z,11.30
2018-08-17T19:52:57.492Z,4.07
2018-08-17T19:55:25.375Z,4.07
2018-08-17T19:57:53.577Z,4.77
2018-08-17T20:00:21.484Z,8.20
2018-08-17T20:02:49.705Z,11.63
2018-08-17T20:05:17.882Z,8.40
2018-08-17T20:07:46.102Z,6.17
2018-08-17T20:10:14.605Z,5.27
2018-08-17T20:12:43.363Z,10.20
2018-08-17T20:15:11.288Z,4.23
2018-08-17T20:17:39.523Z,6.37
2018-08-17T20:20:08.359Z,5.67
2018-08-17T20:22:36.292Z,4.27
2018-08-17T20:25:09.061Z,4.50
2018-08-17T20:27:37.220Z,3.93
2018-08-17T20:30:10.701Z,4.93
2018-08-17T20:32:38.933Z,6.07
2018-08-17T20:35:07.117Z,6.80
2018-08-17T20:37:35.289Z,3.70
2018-08-17T20:40:03.806Z,9.77
2018-08-17T20:42:33.356Z,6.70
2018-08-17T20:45:01.517Z,11.60
2018-08-17T20:47:29.774Z,3.00
2018-08-17T20:49:57.925Z,5.93
2018-08-17T20:52:26.092Z,5.63
2018-08-17T20:54:54.365Z,6.70
2018-08-17T20:57:22.248Z,3.93
2018-08-17T20:59:50.433Z,2.70
2018-08-17T21:02:18.348Z,6.03
2018-08-17T21:04:46.531Z,3.40
2018-08-17T21:07:14.709Z,5.77
2018-08-17T21:09:42.877Z,4.60
2018-08-17T21:12:11.066Z,6.03
2018-08-17T21:14:39.020Z,5.27
2018-08-17T21:17:07.185Z,4.57
2018-08-17T21:26:52.629Z,2.83
2018-08-17T21:29:20.898Z,3.37
2018-08-17T21:31:49.980Z,3.97
2018-08-17T21:34:18.164Z,3.10
2018-08-17T21:36:46.317Z,7.20
2018-08-17T21:39:19.448Z,3.20
2018-08-17T21:41:48.677Z,2.63
2018-08-17T21:44:20.649Z,5.40
2018-08-17T21:46:54.749Z,3.13
2018-08-17T21:49:24.242Z,7.07
2018-08-17T21:51:56.668Z,4.57
2018-08-17T21:54:24.930Z,4.40
2018-08-17T21:56:53.707Z,3.50
2018-08-17T21:59:21.772Z,4.00
